PWSweather.com
Personal Weather Stations
Station Observations
CARNOUSTIE
Pambride, CarnoustieGB DD7 6DY

PambrideCarnoustieGB DD7 6DY

Lat: 56.50889, Lon: -2.7051

Elevation: 105

Station Type: Oregon Scientific WMR200

www.carnoustieweather.co.uk

High Low Average
Temperature 43.3°F6.3°F 39.2°F4.0°F 42.0°F5.6°F
Dew Point 32.6°F0.3°F 23.9°F-4.5°F 28.4°F-2.0°F
Winds 19.6 mph -31.5 mph - 4.6 mph 7.4 mph 12.0 mph 19.3 mph
Wind Gusts 24.2 mph38.9 mph 5.8 mph9.3 mph 15.0 mph24.1 mph
Humidity 71% 49% 59%
Pressure 30.09 in1019.00 in 29.94 in1013.90 in -
Precipitation 0.00 in0.00 in - -
Hour Temp Dew Point Humidity Winds Wind Gusts Pressure Precip Precip Rate Daily Precip Total
12:00 AM 41.9°F5.5°C 24.1°F-4.4°C 49% 19.6 mph S31.5 kmh S 24.2 mph38.9 kmh 29.97 in1014.9 mb - 0.00 in0.0 mm 0.00 in0.0 mm
12:10 AM 41.9°F5.5°C 24.1°F-4.4°C 49% 17.3 mph S27.8 kmh S 20.7 mph33.3 kmh 29.97 in1014.9 mb - 0.00 in0.0 mm 0.00 in0.0 mm
12:15 AM 41.9°F5.5°C 24.1°F-4.4°C 49% 13.8 mph S22.2 kmh S 21.9 mph35.2 kmh 29.97 in1014.9 mb - 0.00 in0.0 mm 0.00 in0.0 mm
12:20 AM 41.8°F5.4°C 24.0°F-4.4°C 49% 16.1 mph S25.9 kmh S 18.4 mph29.6 kmh 29.97 in1014.9 mb - 0.00 in0.0 mm 0.00 in0.0 mm
12:25 AM 41.7°F5.4°C 23.9°F-4.5°C 49% 11.5 mph S18.5 kmh S 13.8 mph22.2 kmh 29.97 in1014.9 mb - 0.00 in0.0 mm 0.00 in0.0 mm
12:30 AM 41.7°F5.4°C 23.9°F-4.5°C 49% 13.8 mph SSE22.2 kmh SSE 15.0 mph24.1 kmh 29.97 in1014.9 mb - 0.00 in0.0 mm 0.00 in0.0 mm
12:35 AM 41.7°F5.4°C 23.9°F-4.5°C 49% 12.7 mph S20.4 kmh S 13.8 mph22.2 kmh 29.97 in1014.9 mb - 0.00 in0.0 mm 0.00 in0.0 mm
12:40 AM 41.7°F5.4°C 24.4°F-4.2°C 50% 16.1 mph S25.9 kmh S 19.6 mph31.5 kmh 29.97 in1014.9 mb - 0.00 in0.0 mm 0.00 in0.0 mm
12:45 AM 41.7°F5.4°C 24.4°F-4.2°C 50% 12.7 mph S20.4 kmh S 16.1 mph25.9 kmh 29.97 in1014.9 mb - 0.00 in0.0 mm 0.00 in0.0 mm
12:50 AM 41.7°F5.4°C 24.4°F-4.2°C 50% 11.5 mph S18.5 kmh S 15.0 mph24.1 kmh 29.97 in1014.9 mb - 0.00 in0.0 mm 0.00 in0.0 mm
12:55 AM 41.7°F5.4°C 24.4°F-4.2°C 50% 11.5 mph S18.5 kmh S 15.0 mph24.1 kmh 29.97 in1014.9 mb - 0.00 in0.0 mm 0.00 in0.0 mm
01:00 AM 41.7°F5.4°C 24.4°F-4.2°C 50% 13.8 mph S22.2 kmh S 16.1 mph25.9 kmh 29.97 in1014.9 mb - 0.00 in0.0 mm 0.00 in0.0 mm
01:10 AM 41.7°F5.4°C 24.4°F-4.2°C 50% 12.7 mph SSE20.4 kmh SSE 15.0 mph24.1 kmh 29.97 in1014.9 mb - 0.00 in0.0 mm 0.00 in0.0 mm
01:15 AM 41.7°F5.4°C 24.4°F-4.2°C 50% 12.7 mph S20.4 kmh S 16.1 mph25.9 kmh 29.97 in1014.9 mb - 0.00 in0.0 mm 0.00 in0.0 mm
01:20 AM 41.7°F5.4°C 24.4°F-4.2°C 50% 15.0 mph S24.1 kmh S 17.3 mph27.8 kmh 29.97 in1014.9 mb - 0.00 in0.0 mm 0.00 in0.0 mm
01:25 AM 41.7°F5.4°C 24.4°F-4.2°C 50% 13.8 mph S22.2 kmh S 19.6 mph31.5 kmh 29.97 in1014.9 mb - 0.00 in0.0 mm 0.00 in0.0 mm
01:30 AM 41.6°F5.3°C 24.3°F-4.3°C 50% 15.0 mph S24.1 kmh S 17.3 mph27.8 kmh 29.97 in1014.9 mb - 0.00 in0.0 mm 0.00 in0.0 mm
01:35 AM 41.7°F5.4°C 24.4°F-4.2°C 50% 13.8 mph S22.2 kmh S 17.3 mph27.8 kmh 29.97 in1014.9 mb - 0.00 in0.0 mm 0.00 in0.0 mm
01:40 AM 41.7°F5.4°C 23.9°F-4.5°C 49% 13.8 mph SSE22.2 kmh SSE 16.1 mph25.9 kmh 29.97 in1014.9 mb - 0.00 in0.0 mm 0.00 in0.0 mm
01:45 AM 41.7°F5.4°C 23.9°F-4.5°C 49% 11.5 mph S18.5 kmh S 15.0 mph24.1 kmh 29.97 in1014.9 mb - 0.00 in0.0 mm 0.00 in0.0 mm
01:50 AM 41.7°F5.4°C 24.4°F-4.2°C 50% 12.7 mph S20.4 kmh S 19.6 mph31.5 kmh 29.97 in1014.9 mb - 0.00 in0.0 mm 0.00 in0.0 mm
01:55 AM 41.7°F5.4°C 24.4°F-4.2°C 50% 13.8 mph S22.2 kmh S 16.1 mph25.9 kmh 29.97 in1014.9 mb - 0.00 in0.0 mm 0.00 in0.0 mm
02:00 AM 41.5°F5.3°C 24.3°F-4.3°C 50% 13.8 mph S22.2 kmh S 21.9 mph35.2 kmh 29.97 in1014.9 mb - 0.00 in0.0 mm 0.00 in0.0 mm
02:10 AM 41.7°F5.4°C 24.4°F-4.2°C 50% 11.5 mph S18.5 kmh S 13.8 mph22.2 kmh 29.97 in1014.9 mb - 0.00 in0.0 mm 0.00 in0.0 mm
02:15 AM 41.5°F5.3°C 24.3°F-4.3°C 50% 10.4 mph S16.7 kmh S 15.0 mph24.1 kmh 29.97 in1014.9 mb - 0.00 in0.0 mm 0.00 in0.0 mm
02:20 AM 41.5°F5.3°C 24.3°F-4.3°C 50% 8.1 mph S13.0 kmh S 13.8 mph22.2 kmh 29.97 in1014.9 mb - 0.00 in0.0 mm 0.00 in0.0 mm
02:25 AM 41.5°F5.3°C 24.3°F-4.3°C 50% 10.4 mph S16.7 kmh S 13.8 mph22.2 kmh 29.97 in1014.9 mb - 0.00 in0.0 mm 0.00 in0.0 mm
02:30 AM 41.5°F5.3°C 24.7°F-4.1°C 51% 10.4 mph S16.7 kmh S 12.7 mph20.4 kmh 29.97 in1014.9 mb - 0.00 in0.0 mm 0.00 in0.0 mm
02:35 AM 41.5°F5.3°C 24.7°F-4.1°C 51% 10.4 mph S16.7 kmh S 9.2 mph14.8 kmh 29.97 in1014.9 mb - 0.00 in0.0 mm 0.00 in0.0 mm
02:40 AM 41.5°F5.3°C 24.7°F-4.1°C 51% 11.5 mph S18.5 kmh S 13.8 mph22.2 kmh 29.97 in1014.9 mb - 0.00 in0.0 mm 0.00 in0.0 mm
02:45 AM 41.7°F5.4°C 24.9°F-3.9°C 51% 12.7 mph S20.4 kmh S 13.8 mph22.2 kmh 29.97 in1014.9 mb - 0.00 in0.0 mm 0.00 in0.0 mm
02:50 AM 41.7°F5.4°C 24.9°F-3.9°C 51% 12.7 mph S20.4 kmh S 13.8 mph22.2 kmh 29.97 in1014.9 mb - 0.00 in0.0 mm 0.00 in0.0 mm
02:55 AM 41.7°F5.4°C 24.9°F-3.9°C 51% 13.8 mph S22.2 kmh S 17.3 mph27.8 kmh 29.97 in1014.9 mb - 0.00 in0.0 mm 0.00 in0.0 mm
03:00 AM 41.9°F5.5°C 25.1°F-3.8°C 51% 11.5 mph S18.5 kmh S 13.8 mph22.2 kmh 29.97 in1014.9 mb - 0.00 in0.0 mm 0.00 in0.0 mm
03:10 AM 42.1°F5.6°C 25.2°F-3.8°C 51% 13.8 mph S22.2 kmh S 18.4 mph29.6 kmh 29.97 in1014.9 mb - 0.00 in0.0 mm 0.00 in0.0 mm
03:15 AM 42.1°F5.6°C 25.2°F-3.8°C 51% 15.0 mph S24.1 kmh S 20.7 mph33.3 kmh 29.97 in1014.9 mb - 0.00 in0.0 mm 0.00 in0.0 mm
03:20 AM 42.1°F5.6°C 25.2°F-3.8°C 51% 13.8 mph S22.2 kmh S 17.3 mph27.8 kmh 29.97 in1014.9 mb - 0.00 in0.0 mm 0.00 in0.0 mm
03:25 AM 42.1°F5.6°C 25.2°F-3.8°C 51% 11.5 mph S18.5 kmh S 20.7 mph33.3 kmh 29.97 in1014.9 mb - 0.00 in0.0 mm 0.00 in0.0 mm
03:30 AM 42.1°F5.6°C 25.2°F-3.8°C 51% 11.5 mph SSE18.5 kmh SSE 18.4 mph29.6 kmh 29.97 in1014.9 mb - 0.00 in0.0 mm 0.00 in0.0 mm
03:35 AM 42.1°F5.6°C 25.2°F-3.8°C 51% 12.7 mph S20.4 kmh S 13.8 mph22.2 kmh 29.97 in1014.9 mb - 0.00 in0.0 mm 0.00 in0.0 mm
03:40 AM 42.1°F5.6°C 25.2°F-3.8°C 51% 12.7 mph S20.4 kmh S 17.3 mph27.8 kmh 29.97 in1014.9 mb - 0.00 in0.0 mm 0.00 in0.0 mm
03:45 AM 42.1°F5.6°C 25.2°F-3.8°C 51% 13.8 mph S22.2 kmh S 19.6 mph31.5 kmh 29.97 in1014.9 mb - 0.00 in0.0 mm 0.00 in0.0 mm
03:50 AM 42.1°F5.6°C 25.2°F-3.8°C 51% 12.7 mph S20.4 kmh S 15.0 mph24.1 kmh 29.97 in1014.9 mb - 0.00 in0.0 mm 0.00 in0.0 mm
03:55 AM 42.1°F5.6°C 25.7°F-3.5°C 52% 11.5 mph S18.5 kmh S 15.0 mph24.1 kmh 29.97 in1014.9 mb - 0.00 in0.0 mm 0.00 in0.0 mm
04:00 AM 42.1°F5.6°C 25.7°F-3.5°C 52% 15.0 mph S24.1 kmh S 18.4 mph29.6 kmh 29.97 in1014.9 mb - 0.00 in0.0 mm 0.00 in0.0 mm
04:10 AM 42.1°F5.6°C 25.7°F-3.5°C 52% 11.5 mph S18.5 kmh S 13.8 mph22.2 kmh 29.97 in1014.9 mb - 0.00 in0.0 mm 0.00 in0.0 mm
04:15 AM 42.1°F5.6°C 25.7°F-3.5°C 52% 11.5 mph S18.5 kmh S 21.9 mph35.2 kmh 29.97 in1014.9 mb - 0.00 in0.0 mm 0.00 in0.0 mm
04:20 AM 42.1°F5.6°C 25.7°F-3.5°C 52% 13.8 mph SSE22.2 kmh SSE 20.7 mph33.3 kmh 29.97 in1014.9 mb - 0.00 in0.0 mm 0.00 in0.0 mm
04:25 AM 42.1°F5.6°C 26.2°F-3.2°C 53% 11.5 mph S18.5 kmh S 12.7 mph20.4 kmh 29.97 in1014.9 mb - 0.00 in0.0 mm 0.00 in0.0 mm
04:30 AM 42.1°F5.6°C 26.2°F-3.2°C 53% 9.2 mph S14.8 kmh S 10.4 mph16.7 kmh 29.97 in1014.9 mb - 0.00 in0.0 mm 0.00 in0.0 mm
04:35 AM 42.1°F5.6°C 26.2°F-3.2°C 53% 12.7 mph S20.4 kmh S 12.7 mph20.4 kmh 29.97 in1014.9 mb - 0.00 in0.0 mm 0.00 in0.0 mm
04:40 AM 42.3°F5.7°C 26.3°F-3.2°C 53% 9.2 mph S14.8 kmh S 10.4 mph16.7 kmh 29.97 in1014.9 mb - 0.00 in0.0 mm 0.00 in0.0 mm
04:45 AM 42.3°F5.7°C 26.3°F-3.2°C 53% 8.1 mph S13.0 kmh S 9.2 mph14.8 kmh 29.97 in1014.9 mb - 0.00 in0.0 mm 0.00 in0.0 mm
04:50 AM 42.3°F5.7°C 26.8°F-2.9°C 54% 10.4 mph S16.7 kmh S 12.7 mph20.4 kmh 29.97 in1014.9 mb - 0.00 in0.0 mm 0.00 in0.0 mm
04:55 AM 42.3°F5.7°C 26.8°F-2.9°C 54% 12.7 mph S20.4 kmh S 17.3 mph27.8 kmh 29.97 in1014.9 mb - 0.00 in0.0 mm 0.00 in0.0 mm
05:00 AM 42.3°F5.7°C 26.8°F-2.9°C 54% 10.4 mph S16.7 kmh S 11.5 mph18.5 kmh 29.97 in1014.9 mb - 0.00 in0.0 mm 0.00 in0.0 mm
05:10 AM 42.3°F5.7°C 26.8°F-2.9°C 54% 10.4 mph S16.7 kmh S 13.8 mph22.2 kmh 29.97 in1014.9 mb - 0.00 in0.0 mm 0.00 in0.0 mm
05:15 AM 42.3°F5.7°C 26.8°F-2.9°C 54% 10.4 mph SSW16.7 kmh SSW 13.8 mph22.2 kmh 29.97 in1014.9 mb - 0.00 in0.0 mm 0.00 in0.0 mm
05:20 AM 42.3°F5.7°C 26.8°F-2.9°C 54% 11.5 mph S18.5 kmh S 13.8 mph22.2 kmh 29.97 in1014.9 mb - 0.00 in0.0 mm 0.00 in0.0 mm
05:25 AM 42.4°F5.8°C 27.0°F-2.8°C 54% 11.5 mph S18.5 kmh S 16.1 mph25.9 kmh 29.97 in1014.9 mb - 0.00 in0.0 mm 0.00 in0.0 mm
05:30 AM 42.4°F5.8°C 27.0°F-2.8°C 54% 13.8 mph S22.2 kmh S 18.4 mph29.6 kmh 29.97 in1014.9 mb - 0.00 in0.0 mm 0.00 in0.0 mm
05:35 AM 42.4°F5.8°C 27.4°F-2.6°C 55% 13.8 mph S22.2 kmh S 18.4 mph29.6 kmh 29.94 in1013.9 mb - 0.00 in0.0 mm 0.00 in0.0 mm
05:40 AM 42.4°F5.8°C 27.4°F-2.6°C 55% 11.5 mph SSE18.5 kmh SSE 13.8 mph22.2 kmh 29.94 in1013.9 mb - 0.00 in0.0 mm 0.00 in0.0 mm
05:45 AM 42.4°F5.8°C 27.4°F-2.6°C 55% 13.8 mph S22.2 kmh S 18.4 mph29.6 kmh 29.94 in1013.9 mb - 0.00 in0.0 mm 0.00 in0.0 mm
05:50 AM 42.4°F5.8°C 27.8°F-2.3°C 56% 12.7 mph S20.4 kmh S 15.0 mph24.1 kmh 29.97 in1014.9 mb - 0.00 in0.0 mm 0.00 in0.0 mm
05:55 AM 42.4°F5.8°C 27.8°F-2.3°C 56% 12.7 mph S20.4 kmh S 18.4 mph29.6 kmh 29.97 in1014.9 mb - 0.00 in0.0 mm 0.00 in0.0 mm
06:00 AM 42.4°F5.8°C 27.4°F-2.6°C 55% 13.8 mph S22.2 kmh S 17.3 mph27.8 kmh 29.97 in1014.9 mb - 0.00 in0.0 mm 0.00 in0.0 mm
06:10 AM 42.4°F5.8°C 27.0°F-2.8°C 54% 11.5 mph S18.5 kmh S 13.8 mph22.2 kmh 29.97 in1014.9 mb - 0.00 in0.0 mm 0.00 in0.0 mm
06:15 AM 42.6°F5.9°C 27.1°F-2.7°C 54% 15.0 mph S24.1 kmh S 18.4 mph29.6 kmh 29.97 in1014.9 mb - 0.00 in0.0 mm 0.00 in0.0 mm
06:20 AM 42.6°F5.9°C 27.1°F-2.7°C 54% 15.0 mph S24.1 kmh S 18.4 mph29.6 kmh 29.97 in1014.9 mb - 0.00 in0.0 mm 0.00 in0.0 mm
06:25 AM 42.6°F5.9°C 26.2°F-3.2°C 52% 17.3 mph S27.8 kmh S 21.9 mph35.2 kmh 29.97 in1014.9 mb - 0.00 in0.0 mm 0.00 in0.0 mm
06:30 AM 42.6°F5.9°C 26.2°F-3.2°C 52% 16.1 mph S25.9 kmh S 21.9 mph35.2 kmh 29.97 in1014.9 mb - 0.00 in0.0 mm 0.00 in0.0 mm
06:35 AM 42.6°F5.9°C 26.2°F-3.2°C 52% 15.0 mph S24.1 kmh S 16.1 mph25.9 kmh 29.97 in1014.9 mb - 0.00 in0.0 mm 0.00 in0.0 mm
06:40 AM 42.6°F5.9°C 26.2°F-3.2°C 52% 15.0 mph SSW24.1 kmh SSW 18.4 mph29.6 kmh 29.97 in1014.9 mb - 0.00 in0.0 mm 0.00 in0.0 mm
06:45 AM 42.4°F5.8°C 26.0°F-3.3°C 52% 17.3 mph S27.8 kmh S 17.3 mph27.8 kmh 29.97 in1014.9 mb - 0.00 in0.0 mm 0.00 in0.0 mm
06:50 AM 42.4°F5.8°C 26.0°F-3.3°C 52% 11.5 mph S18.5 kmh S 17.3 mph27.8 kmh 29.97 in1014.9 mb - 0.00 in0.0 mm 0.00 in0.0 mm
06:55 AM 42.4°F5.8°C 26.0°F-3.3°C 52% 15.0 mph S24.1 kmh S 20.7 mph33.3 kmh 29.97 in1014.9 mb - 0.00 in0.0 mm 0.00 in0.0 mm
07:00 AM 42.4°F5.8°C 26.0°F-3.3°C 52% 13.8 mph S22.2 kmh S 18.4 mph29.6 kmh 29.97 in1014.9 mb - 0.00 in0.0 mm 0.00 in0.0 mm
07:10 AM 42.4°F5.8°C 26.5°F-3.1°C 53% 11.5 mph S18.5 kmh S 13.8 mph22.2 kmh 29.97 in1014.9 mb - 0.00 in0.0 mm 0.00 in0.0 mm
07:15 AM 42.4°F5.8°C 26.5°F-3.1°C 53% 13.8 mph S22.2 kmh S 18.4 mph29.6 kmh 29.97 in1014.9 mb - 0.00 in0.0 mm 0.00 in0.0 mm
07:20 AM 42.4°F5.8°C 26.5°F-3.1°C 53% 12.7 mph S20.4 kmh S 18.4 mph29.6 kmh 29.97 in1014.9 mb - 0.00 in0.0 mm 0.00 in0.0 mm
07:25 AM 42.4°F5.8°C 26.5°F-3.1°C 53% 12.7 mph S20.4 kmh S 17.3 mph27.8 kmh 29.97 in1014.9 mb - 0.00 in0.0 mm 0.00 in0.0 mm
07:30 AM 42.4°F5.8°C 26.5°F-3.1°C 53% 10.4 mph S16.7 kmh S 13.8 mph22.2 kmh 29.97 in1014.9 mb - 0.00 in0.0 mm 0.00 in0.0 mm
07:35 AM 42.4°F5.8°C 26.0°F-3.3°C 52% 10.4 mph SSE16.7 kmh SSE 13.8 mph22.2 kmh 29.94 in1013.9 mb - 0.00 in0.0 mm 0.00 in0.0 mm
07:40 AM 42.4°F5.8°C 26.5°F-3.1°C 53% 10.4 mph SSE16.7 kmh SSE 16.1 mph25.9 kmh 29.94 in1013.9 mb - 0.00 in0.0 mm 0.00 in0.0 mm
07:45 AM 42.8°F6.0°C 26.8°F-2.9°C 53% 12.7 mph S20.4 kmh S 16.1 mph25.9 kmh 29.94 in1013.9 mb - 0.00 in0.0 mm 0.00 in0.0 mm
07:50 AM 42.8°F6.0°C 26.8°F-2.9°C 53% 12.7 mph S20.4 kmh S 18.4 mph29.6 kmh 29.97 in1014.9 mb - 0.00 in0.0 mm 0.00 in0.0 mm
07:55 AM 42.8°F6.0°C 26.8°F-2.9°C 53% 13.8 mph S22.2 kmh S 18.4 mph29.6 kmh 29.97 in1014.9 mb - 0.00 in0.0 mm 0.00 in0.0 mm
08:00 AM 43.0°F6.1°C 26.5°F-3.1°C 52% 11.5 mph S18.5 kmh S 11.5 mph18.5 kmh 29.97 in1014.9 mb - 0.00 in0.0 mm 0.00 in0.0 mm
08:10 AM 43.0°F6.1°C 26.5°F-3.1°C 52% 12.7 mph SSE20.4 kmh SSE 16.1 mph25.9 kmh 29.97 in1014.9 mb - 0.00 in0.0 mm 0.00 in0.0 mm
08:15 AM 43.0°F6.1°C 26.5°F-3.1°C 52% 11.5 mph SSE18.5 kmh SSE 13.8 mph22.2 kmh 29.97 in1014.9 mb - 0.00 in0.0 mm 0.00 in0.0 mm
08:20 AM 43.2°F6.2°C 26.7°F-2.9°C 52% 15.0 mph S24.1 kmh S 17.3 mph27.8 kmh 29.97 in1014.9 mb - 0.00 in0.0 mm 0.00 in0.0 mm
08:25 AM 43.2°F6.2°C 26.2°F-3.2°C 51% 18.4 mph S29.6 kmh S 23.0 mph37.0 kmh 29.97 in1014.9 mb - 0.00 in0.0 mm 0.00 in0.0 mm
08:30 AM 43.0°F6.1°C 26.5°F-3.1°C 52% 17.3 mph S27.8 kmh S 20.7 mph33.3 kmh 29.97 in1014.9 mb - 0.00 in0.0 mm 0.00 in0.0 mm
08:35 AM 42.8°F6.0°C 26.4°F-3.1°C 52% 11.5 mph S18.5 kmh S 11.5 mph18.5 kmh 29.97 in1014.9 mb - 0.00 in0.0 mm 0.00 in0.0 mm
08:40 AM 42.6°F5.9°C 26.7°F-2.9°C 53% 10.4 mph S16.7 kmh S 15.0 mph24.1 kmh 29.97 in1014.9 mb - 0.00 in0.0 mm 0.00 in0.0 mm
08:45 AM 42.6°F5.9°C 27.1°F-2.7°C 54% 12.7 mph S20.4 kmh S 17.3 mph27.8 kmh 29.97 in1014.9 mb - 0.00 in0.0 mm 0.00 in0.0 mm
08:50 AM 42.6°F5.9°C 27.1°F-2.7°C 54% 11.5 mph S18.5 kmh S 12.7 mph20.4 kmh 30.00 in1015.9 mb - 0.00 in0.0 mm 0.00 in0.0 mm
08:55 AM 42.6°F5.9°C 27.1°F-2.7°C 54% 16.1 mph S25.9 kmh S 16.1 mph25.9 kmh 30.00 in1015.9 mb - 0.00 in0.0 mm 0.00 in0.0 mm
09:00 AM 42.6°F5.9°C 27.1°F-2.7°C 54% 12.7 mph S20.4 kmh S 16.1 mph25.9 kmh 30.00 in1015.9 mb - 0.00 in0.0 mm 0.00 in0.0 mm
09:10 AM 42.6°F5.9°C 27.6°F-2.4°C 55% 11.5 mph S18.5 kmh S 16.1 mph25.9 kmh 30.00 in1015.9 mb - 0.00 in0.0 mm 0.00 in0.0 mm
09:15 AM 42.6°F5.9°C 27.6°F-2.4°C 55% 15.0 mph S24.1 kmh S 16.1 mph25.9 kmh 30.00 in1015.9 mb - 0.00 in0.0 mm 0.00 in0.0 mm
09:20 AM 42.8°F6.0°C 27.3°F-2.6°C 54% 13.8 mph S22.2 kmh S 12.7 mph20.4 kmh 30.00 in1015.9 mb - 0.00 in0.0 mm 0.00 in0.0 mm
09:25 AM 42.8°F6.0°C 26.8°F-2.9°C 53% 10.4 mph S16.7 kmh S 13.8 mph22.2 kmh 30.00 in1015.9 mb - 0.00 in0.0 mm 0.00 in0.0 mm
09:30 AM 42.8°F6.0°C 26.8°F-2.9°C 53% 15.0 mph S24.1 kmh S 24.2 mph38.9 kmh 30.00 in1015.9 mb - 0.00 in0.0 mm 0.00 in0.0 mm
09:35 AM 42.8°F6.0°C 26.4°F-3.1°C 52% 10.4 mph SSW16.7 kmh SSW 17.3 mph27.8 kmh 30.00 in1015.9 mb - 0.00 in0.0 mm 0.00 in0.0 mm
09:40 AM 42.8°F6.0°C 26.4°F-3.1°C 52% 10.4 mph S16.7 kmh S 13.8 mph22.2 kmh 30.00 in1015.9 mb - 0.00 in0.0 mm 0.00 in0.0 mm
09:45 AM 42.8°F6.0°C 25.9°F-3.4°C 51% 13.8 mph S22.2 kmh S 16.1 mph25.9 kmh 30.00 in1015.9 mb - 0.00 in0.0 mm 0.00 in0.0 mm
09:50 AM 42.8°F6.0°C 25.9°F-3.4°C 51% 13.8 mph S22.2 kmh S 13.8 mph22.2 kmh 30.00 in1015.9 mb - 0.00 in0.0 mm 0.00 in0.0 mm
09:55 AM 43.0°F6.1°C 26.1°F-3.3°C 51% 11.5 mph S18.5 kmh S 16.1 mph25.9 kmh 30.00 in1015.9 mb - 0.00 in0.0 mm 0.00 in0.0 mm
10:00 AM 43.0°F6.1°C 26.1°F-3.3°C 51% 12.7 mph S20.4 kmh S 16.1 mph25.9 kmh 30.00 in1015.9 mb - 0.00 in0.0 mm 0.00 in0.0 mm
10:10 AM 43.0°F6.1°C 26.1°F-3.3°C 51% 13.8 mph S22.2 kmh S 18.4 mph29.6 kmh 30.00 in1015.9 mb - 0.00 in0.0 mm 0.00 in0.0 mm
10:15 AM 43.0°F6.1°C 26.1°F-3.3°C 51% 11.5 mph S18.5 kmh S 19.6 mph31.5 kmh 30.00 in1015.9 mb - 0.00 in0.0 mm 0.00 in0.0 mm
10:20 AM 43.0°F6.1°C 26.1°F-3.3°C 51% 10.4 mph SSW16.7 kmh SSW 16.1 mph25.9 kmh 29.97 in1014.9 mb - 0.00 in0.0 mm 0.00 in0.0 mm
10:25 AM 43.0°F6.1°C 26.1°F-3.3°C 51% 13.8 mph SW22.2 kmh SW 17.3 mph27.8 kmh 29.97 in1014.9 mb - 0.00 in0.0 mm 0.00 in0.0 mm
10:30 AM 43.2°F6.2°C 25.8°F-3.4°C 50% 12.7 mph S20.4 kmh S 13.8 mph22.2 kmh 29.97 in1014.9 mb - 0.00 in0.0 mm 0.00 in0.0 mm
10:35 AM 43.0°F6.1°C 26.1°F-3.3°C 51% 11.5 mph S18.5 kmh S 13.8 mph22.2 kmh 29.97 in1014.9 mb - 0.00 in0.0 mm 0.00 in0.0 mm
10:40 AM 43.0°F6.1°C 25.6°F-3.6°C 50% 12.7 mph S20.4 kmh S 16.1 mph25.9 kmh 29.97 in1014.9 mb - 0.00 in0.0 mm 0.00 in0.0 mm
10:45 AM 43.0°F6.1°C 25.6°F-3.6°C 50% 13.8 mph S22.2 kmh S 18.4 mph29.6 kmh 29.97 in1014.9 mb - 0.00 in0.0 mm 0.00 in0.0 mm
10:50 AM 43.0°F6.1°C 25.6°F-3.6°C 50% 11.5 mph S18.5 kmh S 13.8 mph22.2 kmh 30.00 in1015.9 mb - 0.00 in0.0 mm 0.00 in0.0 mm
10:55 AM 43.0°F6.1°C 25.6°F-3.6°C 50% 11.5 mph S18.5 kmh S 15.0 mph24.1 kmh 30.00 in1015.9 mb - 0.00 in0.0 mm 0.00 in0.0 mm
11:00 AM 43.1°F6.2°C 25.7°F-3.5°C 50% 11.5 mph S18.5 kmh S 13.8 mph22.2 kmh 30.00 in1015.9 mb - 0.00 in0.0 mm 0.00 in0.0 mm
11:10 AM 43.2°F6.2°C 25.8°F-3.4°C 50% 13.8 mph S22.2 kmh S 13.8 mph22.2 kmh 30.00 in1015.9 mb - 0.00 in0.0 mm 0.00 in0.0 mm
11:15 AM 43.2°F6.2°C 25.8°F-3.4°C 50% 13.8 mph S22.2 kmh S 17.3 mph27.8 kmh 30.00 in1015.9 mb - 0.00 in0.0 mm 0.00 in0.0 mm
11:20 AM 43.2°F6.2°C 25.8°F-3.4°C 50% 11.5 mph S18.5 kmh S 15.0 mph24.1 kmh 30.03 in1016.9 mb - 0.00 in0.0 mm 0.00 in0.0 mm
11:25 AM 43.2°F6.2°C 25.8°F-3.4°C 50% 11.5 mph S18.5 kmh S 15.0 mph24.1 kmh 30.03 in1016.9 mb - 0.00 in0.0 mm 0.00 in0.0 mm
11:30 AM 43.3°F6.3°C 25.9°F-3.4°C 50% 10.4 mph S16.7 kmh S 17.3 mph27.8 kmh 30.03 in1016.9 mb - 0.00 in0.0 mm 0.00 in0.0 mm
11:35 AM 43.3°F6.3°C 25.4°F-3.7°C 49% 12.7 mph S20.4 kmh S 15.0 mph24.1 kmh 30.00 in1015.9 mb - 0.00 in0.0 mm 0.00 in0.0 mm
11:40 AM 43.3°F6.3°C 25.4°F-3.7°C 49% 11.5 mph S18.5 kmh S 13.8 mph22.2 kmh 30.00 in1015.9 mb - 0.00 in0.0 mm 0.00 in0.0 mm
11:45 AM 43.3°F6.3°C 25.4°F-3.7°C 49% 13.8 mph S22.2 kmh S 18.4 mph29.6 kmh 30.00 in1015.9 mb - 0.00 in0.0 mm 0.00 in0.0 mm
11:50 AM 43.3°F6.3°C 25.4°F-3.7°C 49% 11.5 mph SSW18.5 kmh SSW 17.3 mph27.8 kmh 30.00 in1015.9 mb - 0.00 in0.0 mm 0.00 in0.0 mm
11:55 AM 43.3°F6.3°C 25.4°F-3.7°C 49% 13.8 mph S22.2 kmh S 13.8 mph22.2 kmh 30.00 in1015.9 mb - 0.00 in0.0 mm 0.00 in0.0 mm
12:00 PM 43.3°F6.3°C 25.4°F-3.7°C 49% 12.7 mph S20.4 kmh S 23.0 mph37.0 kmh 30.00 in1015.9 mb - 0.00 in0.0 mm 0.00 in0.0 mm
12:10 PM 43.2°F6.2°C 25.3°F-3.7°C 49% 15.0 mph SSW24.1 kmh SSW 19.6 mph31.5 kmh 30.00 in1015.9 mb - 0.00 in0.0 mm 0.00 in0.0 mm
12:15 PM 43.2°F6.2°C 25.3°F-3.7°C 49% 16.1 mph SE25.9 kmh SE 21.9 mph35.2 kmh 30.00 in1015.9 mb - 0.00 in0.0 mm 0.00 in0.0 mm
12:20 PM 43.0°F6.1°C 25.1°F-3.8°C 49% 13.8 mph S22.2 kmh S 16.1 mph25.9 kmh 30.00 in1015.9 mb - 0.00 in0.0 mm 0.00 in0.0 mm
12:25 PM 43.0°F6.1°C 25.1°F-3.8°C 49% 16.1 mph S25.9 kmh S 18.4 mph29.6 kmh 30.00 in1015.9 mb - 0.00 in0.0 mm 0.00 in0.0 mm
12:30 PM 43.0°F6.1°C 25.1°F-3.8°C 49% 17.3 mph S27.8 kmh S 24.2 mph38.9 kmh 30.00 in1015.9 mb - 0.00 in0.0 mm 0.00 in0.0 mm
12:35 PM 43.0°F6.1°C 25.1°F-3.8°C 49% 13.8 mph S22.2 kmh S 20.7 mph33.3 kmh 30.00 in1015.9 mb - 0.00 in0.0 mm 0.00 in0.0 mm
12:40 PM 43.0°F6.1°C 25.1°F-3.8°C 49% 12.7 mph S20.4 kmh S 16.1 mph25.9 kmh 30.00 in1015.9 mb - 0.00 in0.0 mm 0.00 in0.0 mm
12:45 PM 43.0°F6.1°C 25.1°F-3.8°C 49% 13.8 mph S22.2 kmh S 13.8 mph22.2 kmh 30.00 in1015.9 mb - 0.00 in0.0 mm 0.00 in0.0 mm
12:50 PM 43.0°F6.1°C 25.1°F-3.8°C 49% 9.2 mph S14.8 kmh S 10.4 mph16.7 kmh 30.03 in1016.9 mb - 0.00 in0.0 mm 0.00 in0.0 mm
12:55 PM 43.0°F6.1°C 25.6°F-3.6°C 50% 12.7 mph S20.4 kmh S 16.1 mph25.9 kmh 30.03 in1016.9 mb - 0.00 in0.0 mm 0.00 in0.0 mm
01:00 PM 43.0°F6.1°C 29.6°F-1.3°C 59% 17.3 mph S27.8 kmh S 19.6 mph31.5 kmh 30.03 in1016.9 mb - 0.00 in0.0 mm 0.00 in0.0 mm
01:10 PM 43.0°F6.1°C 28.8°F-1.8°C 57% 16.1 mph S25.9 kmh S 16.1 mph25.9 kmh 30.00 in1015.9 mb - 0.00 in0.0 mm 0.00 in0.0 mm
01:15 PM 43.1°F6.2°C 30.9°F-0.6°C 62% 15.0 mph SSW24.1 kmh SSW 13.8 mph22.2 kmh 30.00 in1015.9 mb - 0.00 in0.0 mm 0.00 in0.0 mm
01:20 PM 43.1°F6.2°C 30.9°F-0.6°C 62% 13.8 mph S22.2 kmh S 18.4 mph29.6 kmh 30.00 in1015.9 mb - 0.00 in0.0 mm 0.00 in0.0 mm
01:25 PM 43.0°F6.1°C 31.2°F-0.4°C 63% 17.3 mph S27.8 kmh S 20.7 mph33.3 kmh 30.00 in1015.9 mb - 0.00 in0.0 mm 0.00 in0.0 mm
01:30 PM 43.0°F6.1°C 30.8°F-0.7°C 62% 10.4 mph S16.7 kmh S 12.7 mph20.4 kmh 30.00 in1015.9 mb - 0.00 in0.0 mm 0.00 in0.0 mm
01:35 PM 43.0°F6.1°C 31.2°F-0.4°C 63% 15.0 mph S24.1 kmh S 19.6 mph31.5 kmh 30.00 in1015.9 mb - 0.00 in0.0 mm 0.00 in0.0 mm
01:40 PM 43.0°F6.1°C 31.6°F-0.2°C 64% 15.0 mph S24.1 kmh S 20.7 mph33.3 kmh 30.00 in1015.9 mb - 0.00 in0.0 mm 0.00 in0.0 mm
01:45 PM 42.9°F6.1°C 30.8°F-0.7°C 62% 15.0 mph SSE24.1 kmh SSE 15.0 mph24.1 kmh 30.00 in1015.9 mb - 0.00 in0.0 mm 0.00 in0.0 mm
01:50 PM 43.0°F6.1°C 31.6°F-0.2°C 64% 17.3 mph S27.8 kmh S 20.7 mph33.3 kmh 29.97 in1014.9 mb - 0.00 in0.0 mm 0.00 in0.0 mm
01:55 PM 43.0°F6.1°C 31.6°F-0.2°C 64% 15.0 mph S24.1 kmh S 18.4 mph29.6 kmh 29.97 in1014.9 mb - 0.00 in0.0 mm 0.00 in0.0 mm
02:00 PM 43.0°F6.1°C 32.0°F0.0°C 65% 13.8 mph S22.2 kmh S 17.3 mph27.8 kmh 29.97 in1014.9 mb - 0.00 in0.0 mm 0.00 in0.0 mm
02:10 PM 43.0°F6.1°C 32.4°F0.2°C 66% 13.8 mph S22.2 kmh S 17.3 mph27.8 kmh 29.97 in1014.9 mb - 0.00 in0.0 mm 0.00 in0.0 mm
02:15 PM 43.0°F6.1°C 31.6°F-0.2°C 64% 13.8 mph S22.2 kmh S 16.1 mph25.9 kmh 29.97 in1014.9 mb - 0.00 in0.0 mm 0.00 in0.0 mm
02:20 PM 43.0°F6.1°C 31.6°F-0.2°C 64% 17.3 mph S27.8 kmh S 20.7 mph33.3 kmh 29.97 in1014.9 mb - 0.00 in0.0 mm 0.00 in0.0 mm
02:25 PM 43.0°F6.1°C 31.6°F-0.2°C 64% 15.0 mph S24.1 kmh S 16.1 mph25.9 kmh 29.97 in1014.9 mb - 0.00 in0.0 mm 0.00 in0.0 mm
02:30 PM 42.9°F6.1°C 31.6°F-0.2°C 64% 16.1 mph S25.9 kmh S 18.4 mph29.6 kmh 29.97 in1014.9 mb - 0.00 in0.0 mm 0.00 in0.0 mm
02:35 PM 42.8°F6.0°C 31.5°F-0.3°C 64% 15.0 mph S24.1 kmh S 18.4 mph29.6 kmh 29.97 in1014.9 mb - 0.00 in0.0 mm 0.00 in0.0 mm
02:40 PM 42.8°F6.0°C 31.8°F-0.1°C 65% 15.0 mph S24.1 kmh S 13.8 mph22.2 kmh 29.97 in1014.9 mb - 0.00 in0.0 mm 0.00 in0.0 mm
02:45 PM 42.8°F6.0°C 32.6°F0.3°C 67% 17.3 mph S27.8 kmh S 23.0 mph37.0 kmh 29.97 in1014.9 mb - 0.00 in0.0 mm 0.00 in0.0 mm
02:50 PM 42.8°F6.0°C 31.5°F-0.3°C 64% 18.4 mph S29.6 kmh S 19.6 mph31.5 kmh 30.00 in1015.9 mb - 0.00 in0.0 mm 0.00 in0.0 mm
02:55 PM 42.7°F5.9°C 31.8°F-0.1°C 65% 19.6 mph S31.5 kmh S 18.4 mph29.6 kmh 30.00 in1015.9 mb - 0.00 in0.0 mm 0.00 in0.0 mm
03:00 PM 42.6°F5.9°C 32.0°F0.0°C 66% 17.3 mph S27.8 kmh S 23.0 mph37.0 kmh 30.00 in1015.9 mb - 0.00 in0.0 mm 0.00 in0.0 mm
03:10 PM 42.4°F5.8°C 31.9°F-0.1°C 66% 17.3 mph S27.8 kmh S 17.3 mph27.8 kmh 30.00 in1015.9 mb - 0.00 in0.0 mm 0.00 in0.0 mm
03:15 PM 42.4°F5.8°C 31.5°F-0.3°C 65% 13.8 mph S22.2 kmh S 24.2 mph38.9 kmh 30.00 in1015.9 mb - 0.00 in0.0 mm 0.00 in0.0 mm
03:20 PM 42.3°F5.7°C 32.1°F0.1°C 67% 16.1 mph S25.9 kmh S 18.4 mph29.6 kmh 30.03 in1016.9 mb - 0.00 in0.0 mm 0.00 in0.0 mm
03:25 PM 42.3°F5.7°C 31.7°F-0.2°C 66% 13.8 mph S22.2 kmh S 17.3 mph27.8 kmh 30.03 in1016.9 mb - 0.00 in0.0 mm 0.00 in0.0 mm
03:30 PM 42.3°F5.7°C 32.4°F0.2°C 68% 17.3 mph S27.8 kmh S 18.4 mph29.6 kmh 30.03 in1016.9 mb - 0.00 in0.0 mm 0.00 in0.0 mm
03:35 PM 42.3°F5.7°C 31.7°F-0.2°C 66% 15.0 mph S24.1 kmh S 17.3 mph27.8 kmh 30.03 in1016.9 mb - 0.00 in0.0 mm 0.00 in0.0 mm
03:40 PM 42.1°F5.6°C 32.3°F0.2°C 68% 13.8 mph SSE22.2 kmh SSE 17.3 mph27.8 kmh 30.03 in1016.9 mb - 0.00 in0.0 mm 0.00 in0.0 mm
03:45 PM 42.1°F5.6°C 31.9°F-0.1°C 67% 15.0 mph S24.1 kmh S 18.4 mph29.6 kmh 30.03 in1016.9 mb - 0.00 in0.0 mm 0.00 in0.0 mm
03:50 PM 42.1°F5.6°C 32.3°F0.2°C 68% 12.7 mph S20.4 kmh S 13.8 mph22.2 kmh 30.03 in1016.9 mb - 0.00 in0.0 mm 0.00 in0.0 mm
03:55 PM 41.9°F5.5°C 31.7°F-0.2°C 67% 12.7 mph SSE20.4 kmh SSE 12.7 mph20.4 kmh 30.03 in1016.9 mb - 0.00 in0.0 mm 0.00 in0.0 mm
04:00 PM 41.9°F5.5°C 32.1°F0.1°C 68% 15.0 mph S24.1 kmh S 20.7 mph33.3 kmh 30.03 in1016.9 mb - 0.00 in0.0 mm 0.00 in0.0 mm
04:10 PM 41.9°F5.5°C 32.1°F0.1°C 68% 11.5 mph S18.5 kmh S 11.5 mph18.5 kmh 30.03 in1016.9 mb - 0.00 in0.0 mm 0.00 in0.0 mm
04:15 PM 41.9°F5.5°C 31.7°F-0.2°C 67% 12.7 mph S20.4 kmh S 11.5 mph18.5 kmh 30.03 in1016.9 mb - 0.00 in0.0 mm 0.00 in0.0 mm
04:20 PM 41.9°F5.5°C 32.1°F0.1°C 68% 12.7 mph S20.4 kmh S 15.0 mph24.1 kmh 30.03 in1016.9 mb - 0.00 in0.0 mm 0.00 in0.0 mm
04:25 PM 41.9°F5.5°C 32.5°F0.3°C 69% 13.8 mph S22.2 kmh S 17.3 mph27.8 kmh 30.03 in1016.9 mb - 0.00 in0.0 mm 0.00 in0.0 mm
04:30 PM 42.0°F5.6°C 32.5°F0.3°C 69% 12.7 mph S20.4 kmh S 13.8 mph22.2 kmh 30.03 in1016.9 mb - 0.00 in0.0 mm 0.00 in0.0 mm
04:35 PM 42.0°F5.6°C 32.2°F0.1°C 68% 13.8 mph S22.2 kmh S 13.8 mph22.2 kmh 30.03 in1016.9 mb - 0.00 in0.0 mm 0.00 in0.0 mm
04:40 PM 41.9°F5.5°C 32.1°F0.1°C 68% 12.7 mph S20.4 kmh S 9.2 mph14.8 kmh 30.03 in1016.9 mb - 0.00 in0.0 mm 0.00 in0.0 mm
04:45 PM 42.1°F5.6°C 32.3°F0.2°C 68% 11.5 mph S18.5 kmh S 11.5 mph18.5 kmh 30.03 in1016.9 mb - 0.00 in0.0 mm 0.00 in0.0 mm
04:50 PM 41.9°F5.5°C 32.5°F0.3°C 69% 13.8 mph S22.2 kmh S 11.5 mph18.5 kmh 30.00 in1015.9 mb - 0.00 in0.0 mm 0.00 in0.0 mm
04:55 PM 41.9°F5.5°C 32.5°F0.3°C 69% 13.8 mph S22.2 kmh S 11.5 mph18.5 kmh 30.00 in1015.9 mb - 0.00 in0.0 mm 0.00 in0.0 mm
05:00 PM 41.9°F5.5°C 32.5°F0.3°C 69% 13.8 mph S22.2 kmh S 11.5 mph18.5 kmh 30.00 in1015.9 mb - 0.00 in0.0 mm 0.00 in0.0 mm
05:10 PM 42.0°F5.6°C 32.5°F0.3°C 69% 10.4 mph S16.7 kmh S 11.5 mph18.5 kmh 30.03 in1016.9 mb - 0.00 in0.0 mm 0.00 in0.0 mm
05:15 PM 41.9°F5.5°C 32.1°F0.1°C 68% 9.2 mph S14.8 kmh S 9.2 mph14.8 kmh 30.03 in1016.9 mb - 0.00 in0.0 mm 0.00 in0.0 mm
05:20 PM 41.7°F5.4°C 31.9°F-0.1°C 68% 10.4 mph S16.7 kmh S 13.8 mph22.2 kmh 30.03 in1016.9 mb - 0.00 in0.0 mm 0.00 in0.0 mm
05:25 PM 41.7°F5.4°C 32.3°F0.2°C 69% 11.5 mph S18.5 kmh S 12.7 mph20.4 kmh 30.03 in1016.9 mb - 0.00 in0.0 mm 0.00 in0.0 mm
05:30 PM 41.7°F5.4°C 31.9°F-0.1°C 68% 13.8 mph SSE22.2 kmh SSE 18.4 mph29.6 kmh 30.03 in1016.9 mb - 0.00 in0.0 mm 0.00 in0.0 mm
05:35 PM 41.9°F5.5°C 32.1°F0.1°C 68% 11.5 mph S18.5 kmh S 15.0 mph24.1 kmh 30.03 in1016.9 mb - 0.00 in0.0 mm 0.00 in0.0 mm
05:40 PM 41.9°F5.5°C 32.5°F0.3°C 69% 10.4 mph SSW16.7 kmh SSW 11.5 mph18.5 kmh 30.03 in1016.9 mb - 0.00 in0.0 mm 0.00 in0.0 mm
05:45 PM 41.9°F5.5°C 32.1°F0.1°C 68% 9.2 mph S14.8 kmh S 13.8 mph22.2 kmh 30.03 in1016.9 mb - 0.00 in0.0 mm 0.00 in0.0 mm
05:50 PM 41.7°F5.4°C 31.6°F-0.2°C 67% 6.9 mph S11.1 kmh S 6.9 mph11.1 kmh 30.03 in1016.9 mb - 0.00 in0.0 mm 0.00 in0.0 mm
06:00 PM 41.9°F5.5°C 32.5°F0.3°C 69% 15.0 mph S24.1 kmh S 16.1 mph25.9 kmh 30.03 in1016.9 mb - 0.00 in0.0 mm 0.00 in0.0 mm
06:10 PM 42.1°F5.6°C 32.6°F0.3°C 69% 10.4 mph S16.7 kmh S 13.8 mph22.2 kmh 30.03 in1016.9 mb - 0.00 in0.0 mm 0.00 in0.0 mm
06:15 PM 42.1°F5.6°C 31.9°F-0.1°C 67% 12.7 mph SSW20.4 kmh SSW 17.3 mph27.8 kmh 30.03 in1016.9 mb - 0.00 in0.0 mm 0.00 in0.0 mm
06:25 PM 42.1°F5.6°C 32.3°F0.2°C 68% 10.4 mph S16.7 kmh S 11.5 mph18.5 kmh 30.03 in1016.9 mb - 0.00 in0.0 mm 0.00 in0.0 mm
06:30 PM 42.1°F5.6°C 32.3°F0.2°C 68% 13.8 mph SSW22.2 kmh SSW 15.0 mph24.1 kmh 30.03 in1016.9 mb - 0.00 in0.0 mm 0.00 in0.0 mm
06:35 PM 42.1°F5.6°C 32.3°F0.2°C 68% 12.7 mph S20.4 kmh S 16.1 mph25.9 kmh 30.06 in1017.9 mb - 0.00 in0.0 mm 0.00 in0.0 mm
06:40 PM 42.0°F5.6°C 32.6°F0.3°C 69% 11.5 mph S18.5 kmh S 13.8 mph22.2 kmh 30.06 in1017.9 mb - 0.00 in0.0 mm 0.00 in0.0 mm
06:45 PM 41.9°F5.5°C 32.5°F0.3°C 69% 11.5 mph S18.5 kmh S 17.3 mph27.8 kmh 30.06 in1017.9 mb - 0.00 in0.0 mm 0.00 in0.0 mm
06:50 PM 41.9°F5.5°C 32.1°F0.1°C 68% 9.2 mph S14.8 kmh S 13.8 mph22.2 kmh 30.06 in1017.9 mb - 0.00 in0.0 mm 0.00 in0.0 mm
06:55 PM 41.7°F5.4°C 31.9°F-0.1°C 68% 9.2 mph S14.8 kmh S 10.4 mph16.7 kmh 30.06 in1017.9 mb - 0.00 in0.0 mm 0.00 in0.0 mm
07:00 PM 41.7°F5.4°C 32.3°F0.2°C 69% 8.1 mph S13.0 kmh S 16.1 mph25.9 kmh 30.06 in1017.9 mb - 0.00 in0.0 mm 0.00 in0.0 mm
07:10 PM 41.5°F5.3°C 32.1°F0.1°C 69% 8.1 mph S13.0 kmh S 10.4 mph16.7 kmh 30.06 in1017.9 mb - 0.00 in0.0 mm 0.00 in0.0 mm
07:15 PM 41.5°F5.3°C 32.1°F0.1°C 69% 5.8 mph S9.3 kmh S 9.2 mph14.8 kmh 30.06 in1017.9 mb - 0.00 in0.0 mm 0.00 in0.0 mm
07:20 PM 41.5°F5.3°C 32.1°F0.1°C 69% 8.1 mph S13.0 kmh S 10.4 mph16.7 kmh 30.06 in1017.9 mb - 0.00 in0.0 mm 0.00 in0.0 mm
07:25 PM 41.5°F5.3°C 31.8°F-0.1°C 68% 9.2 mph S14.8 kmh S 9.2 mph14.8 kmh 30.06 in1017.9 mb - 0.00 in0.0 mm 0.00 in0.0 mm
07:30 PM 41.5°F5.3°C 32.1°F0.1°C 69% 10.4 mph S16.7 kmh S 12.7 mph20.4 kmh 30.06 in1017.9 mb - 0.00 in0.0 mm 0.00 in0.0 mm
07:35 PM 41.5°F5.3°C 32.4°F0.2°C 70% 9.2 mph S14.8 kmh S 11.5 mph18.5 kmh 30.06 in1017.9 mb - 0.00 in0.0 mm 0.00 in0.0 mm
07:40 PM 41.4°F5.2°C 31.6°F-0.2°C 68% 8.1 mph S13.0 kmh S 10.4 mph16.7 kmh 30.06 in1017.9 mb - 0.00 in0.0 mm 0.00 in0.0 mm
07:45 PM 41.2°F5.1°C 32.1°F0.1°C 70% 9.2 mph SSE14.8 kmh SSE 10.4 mph16.7 kmh 30.06 in1017.9 mb - 0.00 in0.0 mm 0.00 in0.0 mm
07:50 PM 41.2°F5.1°C 31.8°F-0.1°C 69% 9.2 mph S14.8 kmh S 11.5 mph18.5 kmh 30.06 in1017.9 mb - 0.00 in0.0 mm 0.00 in0.0 mm
07:55 PM 41.2°F5.1°C 32.1°F0.1°C 70% 8.1 mph SSW13.0 kmh SSW 12.7 mph20.4 kmh 30.06 in1017.9 mb - 0.00 in0.0 mm 0.00 in0.0 mm
08:00 PM 41.0°F5.0°C 31.6°F-0.2°C 69% 9.2 mph S14.8 kmh S 13.8 mph22.2 kmh 30.06 in1017.9 mb - 0.00 in0.0 mm 0.00 in0.0 mm
08:10 PM 40.7°F4.8°C 31.3°F-0.4°C 69% 5.8 mph S9.3 kmh S 5.8 mph9.3 kmh 30.09 in1019.0 mb - 0.00 in0.0 mm 0.00 in0.0 mm
08:15 PM 40.6°F4.8°C 31.2°F-0.4°C 69% 6.9 mph S11.1 kmh S 9.2 mph14.8 kmh 30.09 in1019.0 mb - 0.00 in0.0 mm 0.00 in0.0 mm
08:20 PM 40.5°F4.7°C 31.4°F-0.3°C 70% 6.9 mph S11.1 kmh S 9.2 mph14.8 kmh 30.09 in1019.0 mb - 0.00 in0.0 mm 0.00 in0.0 mm
08:25 PM 40.5°F4.7°C 31.1°F-0.5°C 69% 5.8 mph S9.3 kmh S 9.2 mph14.8 kmh 30.09 in1019.0 mb - 0.00 in0.0 mm 0.00 in0.0 mm
08:30 PM 40.3°F4.6°C 30.9°F-0.6°C 69% 10.4 mph S16.7 kmh S 13.8 mph22.2 kmh 30.09 in1019.0 mb - 0.00 in0.0 mm 0.00 in0.0 mm
08:35 PM 40.5°F4.7°C 31.4°F-0.3°C 70% 9.2 mph S14.8 kmh S 9.2 mph14.8 kmh 30.09 in1019.0 mb - 0.00 in0.0 mm 0.00 in0.0 mm
08:40 PM 40.5°F4.7°C 31.1°F-0.5°C 69% 11.5 mph S18.5 kmh S 15.0 mph24.1 kmh 30.09 in1019.0 mb - 0.00 in0.0 mm 0.00 in0.0 mm
08:45 PM 40.6°F4.8°C 31.6°F-0.2°C 70% 11.5 mph S18.5 kmh S 12.7 mph20.4 kmh 30.09 in1019.0 mb - 0.00 in0.0 mm 0.00 in0.0 mm
08:50 PM 40.6°F4.8°C 31.6°F-0.2°C 70% 10.4 mph S16.7 kmh S 13.8 mph22.2 kmh 30.09 in1019.0 mb - 0.00 in0.0 mm 0.00 in0.0 mm
08:55 PM 40.6°F4.8°C 31.6°F-0.2°C 70% 10.4 mph S16.7 kmh S 13.8 mph22.2 kmh 30.09 in1019.0 mb - 0.00 in0.0 mm 0.00 in0.0 mm
09:00 PM 40.8°F4.9°C 32.1°F0.1°C 71% 12.7 mph S20.4 kmh S 16.1 mph25.9 kmh 30.09 in1019.0 mb - 0.00 in0.0 mm 0.00 in0.0 mm
09:10 PM 41.0°F5.0°C 31.6°F-0.2°C 69% 11.5 mph S18.5 kmh S 15.0 mph24.1 kmh 30.09 in1019.0 mb - 0.00 in0.0 mm 0.00 in0.0 mm
09:15 PM 41.0°F5.0°C 32.0°F0.0°C 70% 10.4 mph SSW16.7 kmh SSW 10.4 mph16.7 kmh 30.09 in1019.0 mb - 0.00 in0.0 mm 0.00 in0.0 mm
09:20 PM 41.0°F5.0°C 31.6°F-0.2°C 69% 5.8 mph S9.3 kmh S 8.1 mph13.0 kmh 30.09 in1019.0 mb - 0.00 in0.0 mm 0.00 in0.0 mm
09:25 PM 40.8°F4.9°C 31.8°F-0.1°C 70% 5.8 mph S9.3 kmh S 10.4 mph16.7 kmh 30.09 in1019.0 mb - 0.00 in0.0 mm 0.00 in0.0 mm
09:30 PM 40.8°F4.9°C 31.4°F-0.3°C 69% 10.4 mph S16.7 kmh S 15.0 mph24.1 kmh 30.09 in1019.0 mb - 0.00 in0.0 mm 0.00 in0.0 mm
09:35 PM 40.7°F4.8°C 32.1°F0.1°C 71% 8.1 mph S13.0 kmh S 8.1 mph13.0 kmh 30.09 in1019.0 mb - 0.00 in0.0 mm 0.00 in0.0 mm
09:40 PM 40.6°F4.8°C 31.6°F-0.2°C 70% 9.2 mph S14.8 kmh S 10.4 mph16.7 kmh 30.09 in1019.0 mb - 0.00 in0.0 mm 0.00 in0.0 mm
09:45 PM 40.6°F4.8°C 31.3°F-0.4°C 69% 8.1 mph S13.0 kmh S 9.2 mph14.8 kmh 30.09 in1019.0 mb - 0.00 in0.0 mm 0.00 in0.0 mm
09:50 PM 40.6°F4.8°C 31.3°F-0.4°C 69% 6.9 mph SE11.1 kmh SE 10.4 mph16.7 kmh 30.06 in1017.9 mb - 0.00 in0.0 mm 0.00 in0.0 mm
09:55 PM 40.6°F4.8°C 31.6°F-0.2°C 70% 9.2 mph S14.8 kmh S 13.8 mph22.2 kmh 30.06 in1017.9 mb - 0.00 in0.0 mm 0.00 in0.0 mm
10:00 PM 40.6°F4.8°C 31.6°F-0.2°C 70% 10.4 mph S16.7 kmh S 10.4 mph16.7 kmh 30.06 in1017.9 mb - 0.00 in0.0 mm 0.00 in0.0 mm
10:10 PM 40.8°F4.9°C 31.8°F-0.1°C 70% 6.9 mph S11.1 kmh S 8.1 mph13.0 kmh 30.09 in1019.0 mb - 0.00 in0.0 mm 0.00 in0.0 mm
10:15 PM 41.0°F5.0°C 32.0°F0.0°C 70% 5.8 mph S9.3 kmh S 8.1 mph13.0 kmh 30.09 in1019.0 mb - 0.00 in0.0 mm 0.00 in0.0 mm
10:20 PM 41.0°F5.0°C 31.6°F-0.2°C 69% 9.2 mph S14.8 kmh S 11.5 mph18.5 kmh 30.09 in1019.0 mb - 0.00 in0.0 mm 0.00 in0.0 mm
10:25 PM 41.1°F5.1°C 31.7°F-0.2°C 69% 5.8 mph S9.3 kmh S 8.1 mph13.0 kmh 30.09 in1019.0 mb - 0.00 in0.0 mm 0.00 in0.0 mm
10:30 PM 41.0°F5.0°C 31.9°F-0.1°C 70% 6.9 mph S11.1 kmh S 8.1 mph13.0 kmh 30.09 in1019.0 mb - 0.00 in0.0 mm 0.00 in0.0 mm
10:35 PM 40.6°F4.8°C 31.2°F-0.4°C 69% 5.8 mph S9.3 kmh S 5.8 mph9.3 kmh 30.09 in1019.0 mb - 0.00 in0.0 mm 0.00 in0.0 mm
10:40 PM 40.2°F4.6°C 31.2°F-0.4°C 70% 6.9 mph S11.1 kmh S 10.4 mph16.7 kmh 30.09 in1019.0 mb - 0.00 in0.0 mm 0.00 in0.0 mm
10:45 PM 40.0°F4.4°C 31.0°F-0.6°C 70% 8.1 mph S13.0 kmh S 8.1 mph13.0 kmh 30.09 in1019.0 mb - 0.00 in0.0 mm 0.00 in0.0 mm
10:50 PM 39.9°F4.4°C 30.6°F-0.8°C 69% 8.1 mph S13.0 kmh S 12.7 mph20.4 kmh 30.09 in1019.0 mb - 0.00 in0.0 mm 0.00 in0.0 mm
10:55 PM 39.7°F4.3°C 30.8°F-0.7°C 70% 6.9 mph S11.1 kmh S 8.1 mph13.0 kmh 30.09 in1019.0 mb - 0.00 in0.0 mm 0.00 in0.0 mm
11:00 PM 39.6°F4.2°C 30.2°F-1.0°C 69% 5.8 mph S9.3 kmh S 8.1 mph13.0 kmh 30.09 in1019.0 mb - 0.00 in0.0 mm 0.00 in0.0 mm
11:10 PM 39.4°F4.1°C 30.4°F-0.9°C 70% 8.1 mph S13.0 kmh S 11.5 mph18.5 kmh 30.09 in1019.0 mb - 0.00 in0.0 mm 0.00 in0.0 mm
11:15 PM 39.4°F4.1°C 30.8°F-0.7°C 71% 8.1 mph S13.0 kmh S 11.5 mph18.5 kmh 30.09 in1019.0 mb - 0.00 in0.0 mm 0.00 in0.0 mm
11:20 PM 39.4°F4.1°C 30.4°F-0.9°C 70% 6.9 mph SSE11.1 kmh SSE 8.1 mph13.0 kmh 30.09 in1019.0 mb - 0.00 in0.0 mm 0.00 in0.0 mm
11:25 PM 39.4°F4.1°C 30.4°F-0.9°C 70% 6.9 mph S11.1 kmh S 9.2 mph14.8 kmh 30.09 in1019.0 mb - 0.00 in0.0 mm 0.00 in0.0 mm
11:30 PM 39.4°F4.1°C 30.4°F-0.9°C 70% 6.9 mph S11.1 kmh S 9.2 mph14.8 kmh 30.09 in1019.0 mb - 0.00 in0.0 mm 0.00 in0.0 mm
11:35 PM 39.4°F4.1°C 30.4°F-0.9°C 70% 4.6 mph S7.4 kmh S 6.9 mph11.1 kmh 30.09 in1019.0 mb - 0.00 in0.0 mm 0.00 in0.0 mm
11:40 PM 39.2°F4.0°C 30.2°F-1.0°C 70% 6.9 mph S11.1 kmh S 10.4 mph16.7 kmh 30.09 in1019.0 mb - 0.00 in0.0 mm 0.00 in0.0 mm
11:45 PM 39.5°F4.2°C 30.6°F-0.8°C 70% 6.9 mph S11.1 kmh S 10.4 mph16.7 kmh 30.09 in1019.0 mb - 0.00 in0.0 mm 0.00 in0.0 mm
11:50 PM 39.7°F4.3°C 30.8°F-0.7°C 70% 5.8 mph S9.3 kmh S 8.1 mph13.0 kmh 30.09 in1019.0 mb - 0.00 in0.0 mm 0.00 in0.0 mm
11:55 PM 39.8°F4.3°C 30.8°F-0.7°C 70% 5.8 mph S9.3 kmh S 8.1 mph13.0 kmh 30.09 in1019.0 mb - 0.00 in0.0 mm 0.00 in0.0 mm